Pagina principale
METAR-TAF:

METAR-TAF

Aeroporti :

Aeroporto Internazionale Sir Seewoosagur Ramgoolam

Mauritius, Mauritius

latitudine: 20-26S, longitudine: 057-40E, altezza: 55 m

Osservazione

Il bollettino è stato emesso 11 minuti fa, alle 13:00 UTC
Vento 10 kt da est/nord-est
Temperature 25°C
Umidità 65%
Pressione 1016 hPa
Visibilità 10 km o più
Nubi sparse ad un'altezza di 1500 ft
Nuvoloso ad un'altezza di 5000 ft

METAR: FIMP 141300Z 07010KT 9999 SCT015 BKN050 25/18 Q1016

Ora: 17:11 (13:11 UTC)

Previsione

Il bollettino è stato emesso 1 ora e 41 minuti fa, alle 11:30 UTC
Previsione valida dal 14 alle 12 UTC al 15 alle 18 UTC
Vento 8 kt da est/nord-est
Visibilità 10 km o più
Nubi sparse ad un'altezza di 1600 ft
Evoluzione graduale
dal 14 alle 20 UTC al 14 alle 22 UTC
Vento 3 kt da nord/nord-ovest
Evoluzione graduale
dal 15 alle 02 UTC al 15 alle 04 UTC
Vento 12 kt da est

TAF: FIMP 141130Z 1412/1518 07008KT 9999 SCT016 BECMG 1420/1422 33003KT BECMG 1502/1504 09012KT

Osservazioni e previsioni meteorologiche di più di 4000 aeroporti (messaggi METAR e TAF).

Le stazioni disponibili sono rappresentate dai dischi gialli e rossi sulla carta.

Puntare il mouse per vedere il nome della stazione.

Clicca sopra per visualizzare le osservazioni e previsioni meteorologiche.

Per cambiare la mappa : fare clic sui pulsanti verdi con una croce nera per ingrandire, il pulsante verde con un trattino per diminuire, o sulla freccia verde per le mappe adiacenti.


METAR-TAF: